createdAt,value
2023-04-29T00:02:01.105Z,9.10
2023-04-29T00:04:28.702Z,10.10
2023-04-29T00:06:56.276Z,8.38
2023-04-29T00:09:23.713Z,8.20
2023-04-29T00:11:51.613Z,10.13
2023-04-29T00:14:21.013Z,8.40
2023-04-29T00:16:48.467Z,8.77
2023-04-29T00:19:15.993Z,7.90
2023-04-29T00:21:43.404Z,9.03
2023-04-29T00:24:10.875Z,9.48
2023-04-29T00:26:38.435Z,7.70
2023-04-29T00:29:05.886Z,7.50
2023-04-29T00:31:34.732Z,8.10
2023-04-29T00:34:02.194Z,8.93
2023-04-29T00:36:31.747Z,8.07
2023-04-29T00:38:59.459Z,7.55
2023-04-29T00:41:27.136Z,8.63
2023-04-29T00:43:54.574Z,9.25
2023-04-29T00:46:22.186Z,7.00
2023-04-29T00:48:51.363Z,8.10
2023-04-29T00:51:19.353Z,7.80
2023-04-29T00:53:49.131Z,7.63
2023-04-29T00:56:17.538Z,11.32
2023-04-29T00:58:49.800Z,9.03
2023-04-29T01:03:59.639Z,9.02
2023-04-29T01:06:35.140Z,8.35
2023-04-29T01:09:18.971Z,8.75
2023-04-29T01:11:59.219Z,9.00
2023-04-29T01:14:29.973Z,9.40
2023-04-29T01:17:01.240Z,8.80
2023-04-29T01:19:46.877Z,9.75
2023-04-29T01:22:14.634Z,7.97
2023-04-29T01:24:43.589Z,9.67
2023-04-29T01:27:19.864Z,9.10
2023-04-29T01:29:55.071Z,8.93
2023-04-29T01:32:30.087Z,11.43
2023-04-29T01:35:04.714Z,9.13
2023-04-29T01:37:42.832Z,9.60
2023-04-29T01:40:17.356Z,10.25
2023-04-29T01:42:47.760Z,10.77
2023-04-29T01:45:17.425Z,9.98
2023-04-29T01:47:47.538Z,9.90
2023-04-29T01:50:15.189Z,10.20
2023-04-29T01:52:43.168Z,8.73
2023-04-29T01:55:12.337Z,9.98
2023-04-29T01:57:39.857Z,8.18
2023-04-29T02:00:09.340Z,10.82
2023-04-29T02:02:36.886Z,10.67
2023-04-29T02:05:04.583Z,9.93
2023-04-29T02:07:32.076Z,9.43
2023-04-29T02:09:59.542Z,10.40
2023-04-29T02:12:28.355Z,8.15
2023-04-29T02:14:55.840Z,10.98
2023-04-29T02:17:23.465Z,9.35
2023-04-29T02:19:51.435Z,10.52
2023-04-29T02:22:19.147Z,10.43
2023-04-29T02:24:46.731Z,8.52
2023-04-29T02:27:14.317Z,11.23
2023-04-29T02:29:43.312Z,9.80
2023-04-29T02:32:11.159Z,10.38
2023-04-29T02:34:39.076Z,10.90
2023-04-29T02:37:06.600Z,11.35
2023-04-29T02:39:34.048Z,10.57
2023-04-29T02:42:01.681Z,12.00
2023-04-29T02:44:29.216Z,11.45
2023-04-29T02:46:58.048Z,11.68
2023-04-29T02:49:25.626Z,11.10
2023-04-29T02:51:53.155Z,12.23
2023-04-29T02:54:20.717Z,12.27
2023-04-29T02:56:48.388Z,11.18
2023-04-29T02:59:16.187Z,10.55
2023-04-29T03:01:43.808Z,10.40
2023-04-29T03:04:12.775Z,11.57
2023-04-29T03:06:40.529Z,9.73
2023-04-29T03:09:08.109Z,10.32
2023-04-29T03:11:35.754Z,9.50
2023-04-29T03:14:03.714Z,9.50
2023-04-29T03:16:31.355Z,8.13
2023-04-29T03:18:58.942Z,7.22
2023-04-29T03:21:27.838Z,8.40
2023-04-29T03:23:56.119Z,5.70
2023-04-29T03:26:24.258Z,5.28
2023-04-29T03:28:51.972Z,5.20
2023-04-29T03:31:21.063Z,5.25
2023-04-29T03:33:48.548Z,5.55
2023-04-29T03:36:16.264Z,6.95
2023-04-29T03:38:45.053Z,5.82
2023-04-29T03:41:12.809Z,5.37
2023-04-29T03:43:40.278Z,5.90
2023-04-29T03:46:07.818Z,6.28
2023-04-29T03:48:35.374Z,6.82
2023-04-29T03:51:02.873Z,6.10
2023-04-29T03:53:32.767Z,7.20
2023-04-29T03:56:01.629Z,6.97
2023-04-29T03:58:29.115Z,7.72
2023-04-29T04:00:56.881Z,4.40
2023-04-29T04:03:26.000Z,5.05
2023-04-29T04:05:53.710Z,6.75
2023-04-29T04:08:21.256Z,6.00
2023-04-29T04:10:48.788Z,5.43
2023-04-29T04:13:17.621Z,5.40
2023-04-29T04:15:50.658Z,4.90
2023-04-29T04:18:18.253Z,4.07
2023-04-29T04:20:45.806Z,4.97
2023-04-29T04:23:13.303Z,5.25
2023-04-29T04:25:46.592Z,5.07
2023-04-29T04:28:14.163Z,5.00
2023-04-29T04:30:43.698Z,5.82
2023-04-29T04:33:11.649Z,5.97
2023-04-29T04:35:39.678Z,6.13
2023-04-29T04:38:07.494Z,6.10
2023-04-29T04:40:35.016Z,6.05
2023-04-29T04:43:02.524Z,6.10
2023-04-29T04:45:31.112Z,6.25
2023-04-29T04:48:00.102Z,7.85
2023-04-29T04:50:28.694Z,7.03
2023-04-29T04:52:58.240Z,6.68
2023-04-29T04:55:26.024Z,6.15
2023-04-29T04:57:53.560Z,7.28
2023-04-29T05:00:21.171Z,6.43
2023-04-29T05:02:48.872Z,6.50
2023-04-29T05:05:18.382Z,6.90
2023-04-29T05:07:45.919Z,7.03
2023-04-29T05:10:13.389Z,8.55
2023-04-29T05:12:40.931Z,8.13
2023-04-29T05:15:09.503Z,7.93
2023-04-29T05:17:37.025Z,8.18
2023-04-29T05:20:05.494Z,9.70
2023-04-29T05:22:34.326Z,8.80
2023-04-29T05:25:03.309Z,9.77
2023-04-29T05:27:30.808Z,9.02
2023-04-29T05:29:58.765Z,10.50
2023-04-29T05:32:26.579Z,10.13
2023-04-29T05:34:54.588Z,11.60
2023-04-29T05:37:22.352Z,8.68
2023-04-29T05:39:51.787Z,12.32
2023-04-29T05:42:19.371Z,12.63
2023-04-29T05:44:46.847Z,11.93
2023-04-29T05:47:14.452Z,12.02
2023-04-29T05:49:41.917Z,12.23
2023-04-29T05:52:09.399Z,13.38
2023-04-29T05:54:36.943Z,13.38
2023-04-29T05:57:05.993Z,14.07
2023-04-29T05:59:34.102Z,11.95
2023-04-29T06:02:01.660Z,12.82
2023-04-29T06:04:29.441Z,12.82
2023-04-29T06:06:58.051Z,13.20
2023-04-29T06:09:28.181Z,12.10
2023-04-29T06:11:56.062Z,9.98
2023-04-29T06:14:25.143Z,10.98
2023-04-29T06:16:53.645Z,9.35
2023-04-29T06:19:21.098Z,9.50
2023-04-29T06:21:48.682Z,10.13
2023-04-29T06:24:16.295Z,11.85
2023-04-29T06:26:43.787Z,10.55
2023-04-29T06:29:11.420Z,11.48
2023-04-29T06:31:40.290Z,10.25
2023-04-29T06:34:07.900Z,11.65
2023-04-29T06:36:35.350Z,11.82
2023-04-29T06:39:02.830Z,8.80
2023-04-29T06:41:30.515Z,9.82
2023-04-29T06:43:57.971Z,8.20
2023-04-29T06:46:26.410Z,7.95
2023-04-29T06:48:58.208Z,6.95
2023-04-29T06:51:27.933Z,10.07
2023-04-29T06:53:55.382Z,8.93
2023-04-29T06:56:23.722Z,8.27
2023-04-29T06:58:51.462Z,8.82
2023-04-29T07:01:18.909Z,8.48
2023-04-29T07:03:46.534Z,9.32
2023-04-29T07:06:15.491Z,9.45
2023-04-29T07:08:43.260Z,9.18
2023-04-29T07:11:11.008Z,8.67
2023-04-29T07:13:38.482Z,7.68
2023-04-29T07:16:06.830Z,6.15
2023-04-29T07:18:34.371Z,6.50
2023-04-29T07:21:02.261Z,5.47
2023-04-29T07:23:31.188Z,5.40
2023-04-29T07:25:58.619Z,4.05
2023-04-29T07:28:26.084Z,3.90
2023-04-29T07:30:53.645Z,4.18
2023-04-29T07:33:21.113Z,3.85
2023-04-29T07:35:48.541Z,4.28
2023-04-29T07:38:16.039Z,3.53
2023-04-29T07:40:44.967Z,3.67
2023-04-29T07:43:13.051Z,3.67
2023-04-29T07:45:41.409Z,4.05
2023-04-29T07:48:08.866Z,4.43
2023-04-29T07:50:37.432Z,3.17
2023-04-29T07:53:05.015Z,4.70
2023-04-29T07:55:32.754Z,4.13
2023-04-29T07:58:01.571Z,3.75
2023-04-29T08:00:29.410Z,3.67
2023-04-29T08:02:57.683Z,3.75
2023-04-29T08:05:26.182Z,3.30
2023-04-29T08:07:54.227Z,3.75
2023-04-29T08:10:22.341Z,3.40
2023-04-29T08:12:50.603Z,4.82
2023-04-29T08:15:20.217Z,3.60
2023-04-29T08:17:48.086Z,4.47
2023-04-29T08:20:16.121Z,3.45
2023-04-29T08:22:43.578Z,4.28
2023-04-29T08:25:11.728Z,4.20
2023-04-29T08:27:39.155Z,4.57
2023-04-29T08:30:07.974Z,5.32
2023-04-29T08:32:36.850Z,4.20
2023-04-29T08:35:04.683Z,5.03
2023-04-29T08:37:32.374Z,3.17
2023-04-29T08:39:59.882Z,5.03
2023-04-29T08:42:34.431Z,4.43
2023-04-29T08:45:02.609Z,4.00
2023-04-29T08:47:31.728Z,3.08
2023-04-29T08:50:04.926Z,3.40
2023-04-29T08:52:32.675Z,3.83
2023-04-29T08:55:02.414Z,3.85
2023-04-29T08:57:31.958Z,3.55
2023-04-29T09:00:01.970Z,3.38
2023-04-29T09:02:30.281Z,5.10
2023-04-29T09:05:06.075Z,4.82
2023-04-29T09:07:34.114Z,4.57
2023-04-29T09:10:02.957Z,4.60
2023-04-29T09:12:31.096Z,4.43
2023-04-29T09:14:59.901Z,5.03
2023-04-29T09:17:43.303Z,4.75
2023-04-29T09:20:30.447Z,4.88
2023-04-29T09:23:01.111Z,4.93
2023-04-29T09:25:29.222Z,4.72
2023-04-29T09:27:57.234Z,5.20
2023-04-29T09:30:26.643Z,4.25
2023-04-29T09:33:08.757Z,4.40
2023-04-29T09:35:41.838Z,4.95
2023-04-29T09:38:11.699Z,4.95
2023-04-29T09:40:54.366Z,5.40
2023-04-29T09:43:26.139Z,3.75
2023-04-29T09:45:53.771Z,4.20
2023-04-29T09:48:21.332Z,4.55
2023-04-29T09:51:03.748Z,3.40
2023-04-29T09:53:32.026Z,3.08
2023-04-29T09:56:01.444Z,3.50
2023-04-29T09:58:31.089Z,3.92
2023-04-29T10:01:02.158Z,2.90
2023-04-29T10:03:33.784Z,4.28
2023-04-29T10:06:04.261Z,4.50
2023-04-29T10:08:32.848Z,6.25
2023-04-29T10:11:02.156Z,7.13
2023-04-29T10:13:30.555Z,6.97
2023-04-29T10:16:06.851Z,7.25
2023-04-29T10:18:38.153Z,8.35
2023-04-29T10:21:09.408Z,9.32
2023-04-29T10:23:38.075Z,9.60
2023-04-29T10:26:08.382Z,7.72
2023-04-29T10:28:38.414Z,9.10
2023-04-29T10:31:08.407Z,7.68
2023-04-29T10:33:37.411Z,9.27
2023-04-29T10:36:07.494Z,9.00
2023-04-29T10:38:40.535Z,8.25
2023-04-29T10:41:15.970Z,8.95
2023-04-29T10:43:43.792Z,8.25
2023-04-29T10:46:26.681Z,8.15
2023-04-29T10:48:59.488Z,6.13
2023-04-29T10:51:33.327Z,7.85
2023-04-29T10:54:07.899Z,7.18
2023-04-29T10:56:40.107Z,7.90
2023-04-29T10:59:11.641Z,6.18
2023-04-29T11:01:44.968Z,7.00
2023-04-29T11:04:13.061Z,6.05
2023-04-29T11:06:45.983Z,7.13
2023-04-29T11:09:26.264Z,6.30
2023-04-29T11:12:05.300Z,6.22
2023-04-29T11:14:37.715Z,6.38
2023-04-29T11:17:09.201Z,5.85
2023-04-29T11:19:38.365Z,5.75
2023-04-29T11:22:13.201Z,5.97
2023-04-29T11:24:52.136Z,5.57
2023-04-29T11:27:22.840Z,5.20
2023-04-29T11:29:51.553Z,5.70
2023-04-29T11:32:22.053Z,5.07
2023-04-29T11:34:49.725Z,5.87
2023-04-29T11:37:23.675Z,5.88
2023-04-29T11:39:52.072Z,5.35
2023-04-29T11:42:23.310Z,5.30
2023-04-29T11:44:54.807Z,5.90
2023-04-29T11:47:22.840Z,6.47
2023-04-29T11:49:50.377Z,6.03
2023-04-29T11:52:17.857Z,6.97
2023-04-29T11:54:48.510Z,6.43
2023-04-29T11:57:16.034Z,6.00
2023-04-29T11:59:43.605Z,6.17
2023-04-29T12:02:13.739Z,6.30
2023-04-29T12:04:46.866Z,6.13
2023-04-29T12:07:16.903Z,6.90
2023-04-29T12:09:46.314Z,6.65
2023-04-29T12:12:15.800Z,6.97
2023-04-29T12:14:44.183Z,7.13
2023-04-29T12:17:11.899Z,6.57
2023-04-29T12:19:41.380Z,6.63
2023-04-29T12:22:09.429Z,7.43
2023-04-29T12:24:38.300Z,7.87
2023-04-29T12:27:09.991Z,8.15
2023-04-29T12:29:38.094Z,8.38
2023-04-29T12:32:05.762Z,7.63
2023-04-29T12:34:34.489Z,9.82
2023-04-29T12:37:03.038Z,9.20
2023-04-29T12:39:32.095Z,10.13
2023-04-29T12:42:00.300Z,12.05
2023-04-29T12:44:36.319Z,12.45
2023-04-29T12:47:09.584Z,12.13
2023-04-29T12:49:37.380Z,10.83
2023-04-29T12:52:09.382Z,16.52
2023-04-29T12:54:38.961Z,15.00
2023-04-29T12:57:06.557Z,12.00
2023-04-29T12:59:35.825Z,9.75
2023-04-29T13:02:03.516Z,15.10
2023-04-29T13:04:31.259Z,13.25
2023-04-29T13:07:00.412Z,14.00
2023-04-29T13:09:28.188Z,14.02
2023-04-29T13:11:55.677Z,14.68
2023-04-29T13:14:23.149Z,16.27
2023-04-29T13:16:55.160Z,15.57
2023-04-29T13:21:53.392Z,13.35
2023-04-29T13:24:21.557Z,14.40
2023-04-29T13:26:52.384Z,12.80
2023-04-29T13:29:20.710Z,14.48
2023-04-29T13:31:48.390Z,11.02
2023-04-29T13:34:17.345Z,16.65
2023-04-29T13:36:44.829Z,16.08
2023-04-29T13:39:12.355Z,16.33
2023-04-29T13:41:42.217Z,13.82
2023-04-29T13:44:23.944Z,15.48
2023-04-29T13:46:56.632Z,16.25
2023-04-29T13:49:42.236Z,18.05
2023-04-29T13:53:04.234Z,11.55
2023-04-29T13:55:49.337Z,11.38
2023-04-29T14:00:45.409Z,13.73
2023-04-29T14:03:08.266Z,15.45
2023-04-29T14:05:37.148Z,13.70
2023-04-29T14:08:06.080Z,15.27
2023-04-29T14:10:33.611Z,16.38
2023-04-29T14:13:01.394Z,14.48
2023-04-29T14:15:28.890Z,15.48
2023-04-29T14:17:56.620Z,15.83
2023-04-29T14:20:24.269Z,16.67
2023-04-29T14:22:53.445Z,14.43
2023-04-29T14:25:21.046Z,15.70
2023-04-29T14:27:49.186Z,18.83
2023-04-29T14:30:16.774Z,14.10
2023-04-29T14:32:44.505Z,15.20
2023-04-29T14:35:12.525Z,17.80
2023-04-29T14:37:40.329Z,16.67
2023-04-29T14:40:10.289Z,17.17
2023-04-29T14:42:37.687Z,16.27
2023-04-29T14:45:06.750Z,19.27
2023-04-29T14:47:34.219Z,16.30
2023-04-29T14:50:01.796Z,16.13
2023-04-29T14:52:29.269Z,19.92
2023-04-29T14:54:56.916Z,18.92
2023-04-29T14:57:25.718Z,15.90
2023-04-29T14:59:53.151Z,18.77
2023-04-29T15:02:20.723Z,15.35
2023-04-29T15:04:48.935Z,16.55
2023-04-29T15:07:17.085Z,17.93
2023-04-29T15:09:44.611Z,18.75
2023-04-29T15:12:14.242Z,20.38
2023-04-29T15:14:43.051Z,18.98
2023-04-29T15:17:10.509Z,18.08
2023-04-29T15:19:38.278Z,19.25
2023-04-29T15:22:05.772Z,15.63
2023-04-29T15:24:33.292Z,18.38
2023-04-29T15:27:00.833Z,15.18
2023-04-29T15:29:28.274Z,16.42
2023-04-29T15:31:57.296Z,15.33
2023-04-29T15:34:24.810Z,16.17
2023-04-29T15:36:52.364Z,17.00
2023-04-29T15:39:19.911Z,13.02
2023-04-29T15:41:48.133Z,12.35
2023-04-29T15:44:15.618Z,13.00
2023-04-29T15:46:43.235Z,15.77
2023-04-29T15:49:12.283Z,15.98
2023-04-29T15:51:39.782Z,15.85
2023-04-29T15:54:07.639Z,15.10
2023-04-29T15:56:35.385Z,12.03
2023-04-29T15:59:02.826Z,16.58
2023-04-29T16:01:30.796Z,15.23
2023-04-29T16:03:58.319Z,15.55
2023-04-29T16:06:28.290Z,17.67
2023-04-29T16:08:56.544Z,14.20
2023-04-29T16:11:25.706Z,15.07
2023-04-29T16:13:53.197Z,14.18
2023-04-29T16:16:20.787Z,11.98
2023-04-29T16:18:48.255Z,13.55
2023-04-29T16:21:15.818Z,13.30
2023-04-29T16:23:44.834Z,12.20
2023-04-29T16:26:12.248Z,13.23
2023-04-29T16:28:40.512Z,14.48
2023-04-29T16:31:08.136Z,14.07
2023-04-29T16:33:35.672Z,11.70
2023-04-29T16:36:03.542Z,13.15
2023-04-29T16:38:31.027Z,11.88
2023-04-29T16:40:59.865Z,13.45
2023-04-29T16:43:27.305Z,16.05
2023-04-29T16:45:54.774Z,11.93
2023-04-29T16:48:22.246Z,8.82
2023-04-29T16:50:50.667Z,13.40
2023-04-29T16:53:18.212Z,14.98
2023-04-29T16:55:46.134Z,18.15
2023-04-29T16:58:15.007Z,15.27
2023-04-29T17:00:42.551Z,16.13
2023-04-29T17:03:10.432Z,14.43
2023-04-29T17:05:38.436Z,14.93
2023-04-29T17:08:06.373Z,17.88
2023-04-29T17:10:33.947Z,16.20
2023-04-29T17:13:01.474Z,15.77
2023-04-29T17:15:30.357Z,17.25
2023-04-29T17:17:58.028Z,14.15
2023-04-29T17:20:25.604Z,16.08
2023-04-29T17:22:53.160Z,17.60
2023-04-29T17:25:22.349Z,18.27
2023-04-29T17:27:49.816Z,18.85
2023-04-29T17:30:17.303Z,15.88
2023-04-29T17:32:46.746Z,17.33
2023-04-29T17:35:14.276Z,17.60
2023-04-29T17:37:41.856Z,17.67
2023-04-29T17:40:10.500Z,17.70
2023-04-29T17:42:38.269Z,18.05
2023-04-29T17:45:06.804Z,19.50
2023-04-29T17:47:35.382Z,17.90
2023-04-29T17:50:04.348Z,19.65
2023-04-29T17:52:32.117Z,19.27
2023-04-29T17:54:59.769Z,19.38
2023-04-29T17:57:28.540Z,19.98
2023-04-29T17:59:56.731Z,18.40
2023-04-29T18:02:24.781Z,21.27
2023-04-29T18:04:52.410Z,19.98
2023-04-29T18:07:21.286Z,20.15
2023-04-29T18:09:48.800Z,20.83
2023-04-29T18:12:17.563Z,21.43
2023-04-29T18:14:46.544Z,21.10
2023-04-29T18:17:14.069Z,20.23
2023-04-29T18:19:41.580Z,19.90
2023-04-29T18:22:09.621Z,21.00
2023-04-29T18:24:38.751Z,21.17
2023-04-29T18:27:06.565Z,20.95
2023-04-29T18:29:34.331Z,19.52
2023-04-29T18:32:02.111Z,20.75
2023-04-29T18:34:30.122Z,21.38
2023-04-29T18:36:58.026Z,19.80
2023-04-29T18:39:25.949Z,22.13
2023-04-29T18:41:54.807Z,21.58
2023-04-29T18:44:22.401Z,22.75
2023-04-29T18:46:50.144Z,20.88
2023-04-29T18:49:18.057Z,22.30
2023-04-29T18:51:46.794Z,20.83
2023-04-29T18:54:16.602Z,21.23
2023-04-29T18:56:46.438Z,21.75
2023-04-29T18:59:19.821Z,21.10
2023-04-29T19:01:48.372Z,20.20
2023-04-29T19:04:16.530Z,22.23
2023-04-29T19:06:44.929Z,20.42
2023-04-29T19:09:13.855Z,20.75
2023-04-29T19:11:41.621Z,24.02
2023-04-29T19:14:09.233Z,22.57
2023-04-29T19:16:38.275Z,21.95
2023-04-29T19:19:06.733Z,21.88
2023-04-29T19:21:34.733Z,22.10
2023-04-29T19:24:02.652Z,21.55
2023-04-29T19:26:32.889Z,24.70
2023-04-29T19:29:03.587Z,23.05
2023-04-29T19:31:31.444Z,22.25
2023-04-29T19:34:02.074Z,21.95
2023-04-29T19:36:34.218Z,22.27
2023-04-29T19:39:03.731Z,22.87
2023-04-29T19:41:34.645Z,22.40
2023-04-29T19:44:02.902Z,20.80
2023-04-29T19:46:30.765Z,24.10
2023-04-29T19:48:59.901Z,22.92
2023-04-29T19:51:27.557Z,21.77
2023-04-29T19:53:56.784Z,23.45
2023-04-29T19:56:24.594Z,22.77
2023-04-29T19:58:55.734Z,23.67
2023-04-29T20:01:23.776Z,23.33
2023-04-29T20:03:51.522Z,23.47
2023-04-29T20:06:20.820Z,23.75
2023-04-29T20:08:48.533Z,22.95
2023-04-29T20:11:16.419Z,23.35
2023-04-29T20:13:44.842Z,23.25
2023-04-29T20:16:12.868Z,23.73
2023-04-29T20:18:40.882Z,24.38
2023-04-29T20:21:08.617Z,21.45
2023-04-29T20:23:37.932Z,22.15
2023-04-29T20:26:05.676Z,22.63
2023-04-29T20:28:33.464Z,23.07
2023-04-29T20:31:01.236Z,24.80
2023-04-29T20:33:29.674Z,23.48
2023-04-29T20:36:05.608Z,23.20
2023-04-29T20:38:35.289Z,23.75
2023-04-29T20:41:05.788Z,25.10
2023-04-29T20:43:33.565Z,23.00
2023-04-29T20:46:03.127Z,23.40
2023-04-29T20:48:31.051Z,23.90
2023-04-29T20:50:58.817Z,25.45
2023-04-29T20:53:26.899Z,22.13
2023-04-29T20:55:54.712Z,22.33
2023-04-29T20:58:23.870Z,22.80
2023-04-29T21:00:51.693Z,22.15
2023-04-29T21:03:22.193Z,24.20
2023-04-29T21:05:54.351Z,21.73
2023-04-29T21:08:22.041Z,22.98
2023-04-29T21:10:49.658Z,21.10
2023-04-29T21:13:17.818Z,23.63
2023-04-29T21:15:46.980Z,20.95
2023-04-29T21:18:15.443Z,20.90
2023-04-29T21:20:43.530Z,20.23
2023-04-29T21:23:11.248Z,19.52
2023-04-29T21:25:38.958Z,20.75
2023-04-29T21:28:06.768Z,20.52
2023-04-29T21:30:34.448Z,19.63
2023-04-29T21:33:03.844Z,20.80
2023-04-29T21:35:31.616Z,20.50
2023-04-29T21:37:59.339Z,21.95
2023-04-29T21:40:27.135Z,22.05
2023-04-29T21:42:55.320Z,22.67
2023-04-29T21:45:23.349Z,23.83
2023-04-29T21:47:51.140Z,24.92
2023-04-29T21:50:20.496Z,26.25
2023-04-29T21:52:48.016Z,23.33
2023-04-29T21:55:15.545Z,24.35
2023-04-29T21:57:45.310Z,23.05
2023-04-29T22:00:32.612Z,23.85
2023-04-29T22:03:00.906Z,20.52
2023-04-29T22:05:30.086Z,20.45
2023-04-29T22:07:58.938Z,21.42
2023-04-29T22:10:26.622Z,21.83
2023-04-29T22:12:54.297Z,21.17
2023-04-29T22:15:28.935Z,20.25
2023-04-29T22:17:57.719Z,19.95
2023-04-29T22:20:25.424Z,19.67
2023-04-29T22:22:54.875Z,20.65
2023-04-29T22:25:22.704Z,20.75
2023-04-29T22:27:50.548Z,21.20
2023-04-29T22:30:18.469Z,21.63
2023-04-29T22:32:45.928Z,20.75
2023-04-29T22:35:13.503Z,19.88
2023-04-29T22:37:41.170Z,22.92
2023-04-29T22:40:11.845Z,19.88
2023-04-29T22:42:39.606Z,20.00
2023-04-29T22:45:08.413Z,23.00
2023-04-29T22:47:36.008Z,21.55
2023-04-29T22:50:03.847Z,22.73
2023-04-29T22:52:32.619Z,22.73
2023-04-29T22:55:00.482Z,21.50
2023-04-29T22:57:29.492Z,22.83
2023-04-29T22:59:57.848Z,23.00
2023-04-29T23:02:29.204Z,18.92
2023-04-29T23:04:57.611Z,20.10
2023-04-29T23:07:26.770Z,20.67
2023-04-29T23:09:54.422Z,18.02
2023-04-29T23:12:22.262Z,17.17
2023-04-29T23:14:51.568Z,17.30
2023-04-29T23:17:19.274Z,17.88
2023-04-29T23:19:46.710Z,17.88
2023-04-29T23:22:14.169Z,18.35
2023-04-29T23:24:41.655Z,18.65
2023-04-29T23:27:09.075Z,18.67
2023-04-29T23:29:36.561Z,18.23
2023-04-29T23:32:05.787Z,18.83
2023-04-29T23:34:33.218Z,18.83
2023-04-29T23:37:01.353Z,18.65
2023-04-29T23:39:28.968Z,17.85
2023-04-29T23:41:56.502Z,18.67
2023-04-29T23:44:25.047Z,17.75
2023-04-29T23:46:53.494Z,18.40
2023-04-29T23:49:22.367Z,18.98
2023-04-29T23:51:49.940Z,17.80
2023-04-29T23:54:17.494Z,17.27
2023-04-29T23:56:45.118Z,17.58
2023-04-29T23:59:12.609Z,17.63
